Time;durP1;ratioP1;P1;durP2;ratioP2;P2;SDS_P1;SDS_P2;PMS_P1;PMS_P2;Temp;Humidity;BMP_temperature;BMP_pressure;BME280_temperature;BME280_humidity;BME280_pressure;Samples;Min_cycle;Max_cycle;Signal;HPM_P1;HPM_P2
2023/05/03 00:02:04;;;;;;;77.65;73.75;;;5.10;99.90;;;;;;5073234;28;20035;-67
2023/05/03 00:04:30;;;;;;;77.57;73.68;;;5.00;99.90;;;;;;5107716;28;20122;-67
2023/05/03 00:06:56;;;;;;;77.05;73.43;;;5.00;99.90;;;;;;5064358;28;20108;-68
2023/05/03 00:09:22;;;;;;;76.43;72.40;;;4.90;99.90;;;;;;5075861;28;20051;-67
2023/05/03 00:11:48;;;;;;;73.43;69.78;;;4.80;99.90;;;;;;5068180;28;20399;-67
2023/05/03 00:14:14;;;;;;;70.50;66.95;;;4.80;99.90;;;;;;5088883;28;20086;-67
2023/05/03 00:16:39;;;;;;;71.85;68.35;;;4.80;99.90;;;;;;5088079;28;20044;-68
2023/05/03 00:19:05;;;;;;;70.72;67.43;;;4.70;99.90;;;;;;5090153;28;20553;-67
2023/05/03 00:21:31;;;;;;;75.57;71.97;;;4.70;99.90;;;;;;5083799;27;20070;-68
2023/05/03 00:23:56;;;;;;;79.72;75.93;;;4.70;99.90;;;;;;5089626;28;20380;-67
2023/05/03 00:26:22;;;;;;;75.70;72.22;;;4.70;99.90;;;;;;5065995;28;20048;-67
2023/05/03 00:28:48;;;;;;;77.50;73.68;;;4.70;99.90;;;;;;5062019;28;20562;-67
2023/05/03 00:31:13;;;;;;;80.38;76.47;;;4.60;99.90;;;;;;5067328;28;20040;-68
2023/05/03 00:33:39;;;;;;;82.63;78.95;;;4.70;99.90;;;;;;5085697;28;20044;-67
2023/05/03 00:36:08;;;;;;;83.53;79.70;;;4.70;99.90;;;;;;5066199;28;20035;-68
2023/05/03 00:38:34;;;;;;;95.50;91.00;;;4.60;99.90;;;;;;5060451;28;20132;-67
2023/05/03 00:41:00;;;;;;;95.85;91.57;;;4.60;99.90;;;;;;5068708;28;20120;-67
2023/05/03 00:43:26;;;;;;;121.90;116.47;;;4.70;99.90;;;;;;5071073;28;20052;-67
2023/05/03 00:45:53;;;;;;;128.93;123.40;;;4.70;99.90;;;;;;5079074;28;20059;-68
2023/05/03 00:48:18;;;;;;;118.93;113.75;;;4.80;99.90;;;;;;5067284;28;20526;-67
2023/05/03 00:50:46;;;;;;;125.95;120.45;;;4.80;99.90;;;;;;5062123;28;20055;-68
2023/05/03 00:53:12;;;;;;;130.57;125.10;;;4.90;99.90;;;;;;5087657;28;20521;-67
2023/05/03 00:55:38;;;;;;;135.65;129.77;;;5.00;99.90;;;;;;5080704;28;20383;-67
2023/05/03 00:58:04;;;;;;;142.55;136.27;;;5.00;99.90;;;;;;5067942;28;20428;-68
2023/05/03 01:00:31;;;;;;;118.75;113.70;;;5.00;99.90;;;;;;5080143;28;20144;-67
2023/05/03 01:02:56;;;;;;;120.55;115.22;;;5.10;99.90;;;;;;5077118;28;20051;-67
2023/05/03 01:05:22;;;;;;;120.82;115.47;;;5.10;99.90;;;;;;5084555;28;20518;-67
2023/05/03 01:08:04;;;;;;;122.03;116.78;;;5.10;99.90;;;;;;5073333;28;20123;-68
2023/05/03 01:10:46;;;;;;;124.40;118.88;;;5.20;99.90;;;;;;5084895;28;20622;-67
2023/05/03 01:13:42;;;;;;;123.80;118.53;;;5.30;99.90;;;;;;5065196;28;20514;-65
2023/05/03 01:16:32;;;;;;;115.85;110.97;;;5.30;99.90;;;;;;5080054;28;20052;-65
2023/05/03 01:19:02;;;;;;;118.50;113.55;;;5.30;99.90;;;;;;5084356;28;20048;-66
2023/05/03 01:21:29;;;;;;;113.82;108.75;;;5.40;99.90;;;;;;5076400;28;20040;-66
2023/05/03 01:24:12;;;;;;;111.53;106.82;;;5.40;99.90;;;;;;5084521;28;20035;-66
2023/05/03 01:26:38;;;;;;;109.53;104.75;;;5.40;99.90;;;;;;5079919;28;20168;-66
2023/05/03 01:29:04;;;;;;;117.93;112.75;;;5.50;99.90;;;;;;5072096;28;20111;-65
2023/05/03 01:31:38;;;;;;;118.97;113.55;;;5.50;99.90;;;;;;5074377;28;20123;-65
2023/05/03 01:34:17;;;;;;;118.70;113.60;;;5.50;99.90;;;;;;5077405;28;20056;-66
2023/05/03 01:36:44;;;;;;;112.40;107.57;;;5.60;99.90;;;;;;5064092;28;20048;-65
2023/05/03 01:39:24;;;;;;;122.80;117.30;;;5.60;99.90;;;;;;5071825;28;20047;-65
2023/05/03 01:41:52;;;;;;;91.78;87.78;;;5.60;99.90;;;;;;5081046;28;20059;-65
2023/05/03 01:44:18;;;;;;;128.45;122.72;;;5.60;99.90;;;;;;5079775;28;20381;-66
2023/05/03 01:46:45;;;;;;;131.88;126.15;;;5.50;99.90;;;;;;5066197;28;20047;-65
2023/05/03 01:49:11;;;;;;;112.47;107.63;;;5.50;99.90;;;;;;5085531;28;20036;-65
2023/05/03 01:51:37;;;;;;;87.85;83.97;;;5.50;99.90;;;;;;5076347;28;20400;-66
2023/05/03 01:54:03;;;;;;;91.82;87.75;;;5.40;99.90;;;;;;5072404;28;20067;-65
2023/05/03 01:56:30;;;;;;;91.70;87.43;;;5.40;99.90;;;;;;5080982;28;20060;-66
2023/05/03 01:58:56;;;;;;;94.70;90.63;;;5.30;99.90;;;;;;5079788;28;20067;-65
2023/05/03 02:01:21;;;;;;;94.65;90.43;;;5.30;99.90;;;;;;5067958;28;20094;-65
2023/05/03 02:03:47;;;;;;;121.57;116.13;;;5.20;99.90;;;;;;5077078;28;20119;-65
2023/05/03 02:06:12;;;;;;;103.18;98.55;;;5.20;99.90;;;;;;5087254;28;20106;-66
2023/05/03 02:08:38;;;;;;;127.07;121.60;;;5.10;99.90;;;;;;5082568;28;20485;-65
2023/05/03 02:11:04;;;;;;;138.60;132.88;;;5.10;99.90;;;;;;5088064;28;20032;-65
2023/05/03 02:13:29;;;;;;;109.57;104.80;;;5.10;99.90;;;;;;5087828;28;20059;-68
2023/05/03 02:15:55;;;;;;;119.60;114.45;;;5.10;99.90;;;;;;5077275;28;20036;-66
2023/05/03 02:18:21;;;;;;;138.52;132.80;;;5.10;99.90;;;;;;5085650;28;20047;-66
2023/05/03 02:20:47;;;;;;;138.65;132.75;;;5.10;99.90;;;;;;5086117;28;20032;-66
2023/05/03 02:23:13;;;;;;;152.30;145.80;;;5.10;99.90;;;;;;5072059;28;20048;-66
2023/05/03 02:25:39;;;;;;;132.40;126.80;;;5.10;99.90;;;;;;5095324;28;20131;-66
2023/05/03 02:28:05;;;;;;;134.88;129.15;;;5.10;99.90;;;;;;5073316;28;20056;-66
2023/05/03 02:30:32;;;;;;;138.15;132.05;;;5.10;99.90;;;;;;5088940;28;20043;-66
2023/05/03 02:32:58;;;;;;;116.68;111.70;;;5.20;99.90;;;;;;5066805;28;20058;-66
2023/05/03 02:35:24;;;;;;;132.32;126.72;;;5.30;99.90;;;;;;5109155;28;20507;-66
2023/05/03 02:37:50;;;;;;;121.80;116.80;;;5.30;99.90;;;;;;5106116;28;20046;-66
2023/05/03 02:40:16;;;;;;;117.38;112.32;;;5.30;99.90;;;;;;5083762;28;20560;-65
2023/05/03 02:42:41;;;;;;;125.53;120.30;;;5.30;99.90;;;;;;5103550;28;20048;-65
2023/05/03 02:45:07;;;;;;;116.10;111.13;;;5.30;99.90;;;;;;5079887;28;20032;-65
2023/05/03 02:47:33;;;;;;;123.22;117.90;;;5.30;99.90;;;;;;5079406;28;20051;-65
2023/05/03 02:49:58;;;;;;;103.50;99.22;;;5.40;99.90;;;;;;5066667;28;20046;-68
2023/05/03 02:52:24;;;;;;;112.55;107.72;;;5.40;99.90;;;;;;5072890;28;20114;-66
2023/05/03 02:54:50;;;;;;;118.82;113.70;;;5.40;99.90;;;;;;5091559;28;20051;-65
2023/05/03 02:57:15;;;;;;;143.25;137.30;;;5.40;99.90;;;;;;5078802;28;20128;-66
2023/05/03 02:59:41;;;;;;;128.57;123.05;;;5.50;99.90;;;;;;5090113;28;20043;-65
2023/05/03 03:02:06;;;;;;;137.25;131.43;;;5.50;99.90;;;;;;5099993;28;20036;-65
2023/05/03 03:04:32;;;;;;;104.32;99.90;;;5.50;99.90;;;;;;5089072;28;20085;-65
2023/05/03 03:06:58;;;;;;;113.72;108.78;;;5.50;99.90;;;;;;5073987;28;20075;-66
2023/05/03 03:09:23;;;;;;;120.35;115.28;;;5.60;99.90;;;;;;5090018;28;20506;-66
2023/05/03 03:11:52;;;;;;;152.93;146.45;;;5.60;99.90;;;;;;5064932;28;20109;-65
2023/05/03 03:14:18;;;;;;;127.80;122.40;;;5.60;99.90;;;;;;5065179;28;20439;-66
2023/05/03 03:16:49;;;;;;;110.30;105.35;;;5.60;99.90;;;;;;5085911;28;20131;-66
2023/05/03 03:19:15;;;;;;;111.78;106.88;;;5.60;99.90;;;;;;5090427;28;20043;-65
2023/05/03 03:21:41;;;;;;;131.75;125.95;;;5.60;99.90;;;;;;5083177;28;20055;-66
2023/05/03 03:24:06;;;;;;;120.85;115.75;;;5.70;99.90;;;;;;5108051;28;20067;-65
2023/05/03 03:26:32;;;;;;;142.60;136.45;;;5.70;99.90;;;;;;5082412;28;20058;-66
2023/05/03 03:28:58;;;;;;;115.47;110.22;;;5.60;99.90;;;;;;5068442;28;20044;-65
2023/05/03 03:31:24;;;;;;;85.45;81.80;;;5.60;99.90;;;;;;5079440;28;20036;-65
2023/05/03 03:33:50;;;;;;;81.03;77.40;;;5.50;99.90;;;;;;5068912;28;20063;-66
2023/05/03 03:36:16;;;;;;;76.65;73.35;;;5.40;99.90;;;;;;5089625;28;20071;-65
2023/05/03 03:38:42;;;;;;;85.88;81.93;;;5.40;99.90;;;;;;5065855;28;20127;-65
2023/05/03 03:41:07;;;;;;;85.22;81.18;;;5.40;99.90;;;;;;5084546;28;20036;-66
2023/05/03 03:43:33;;;;;;;93.95;89.85;;;5.30;99.90;;;;;;5079474;28;20514;-65
2023/05/03 03:45:59;;;;;;;90.40;86.40;;;5.30;99.90;;;;;;5101085;28;20035;-66
2023/05/03 03:48:24;;;;;;;90.55;86.50;;;5.20;99.90;;;;;;5080076;28;20122;-66
2023/05/03 03:50:50;;;;;;;94.00;89.90;;;5.20;99.90;;;;;;5103694;28;20035;-66
2023/05/03 03:53:16;;;;;;;91.68;87.57;;;5.20;99.90;;;;;;5105232;28;20040;-66
2023/05/03 03:55:41;;;;;;;98.43;94.25;;;5.20;99.90;;;;;;5087064;28;20100;-66
2023/05/03 03:58:07;;;;;;;92.85;88.55;;;5.20;99.90;;;;;;5077314;28;20073;-66
2023/05/03 04:00:35;;;;;;;86.90;83.18;;;5.20;99.90;;;;;;5077454;28;20058;-66
2023/05/03 04:03:01;;;;;;;83.43;79.72;;;5.20;99.90;;;;;;5090066;28;20120;-66
2023/05/03 04:05:26;;;;;;;89.25;85.40;;;5.20;99.90;;;;;;5081314;28;20180;-66
2023/05/03 04:07:52;;;;;;;96.40;92.10;;;5.30;99.90;;;;;;5072150;28;20130;-66
2023/05/03 04:10:18;;;;;;;93.20;89.20;;;5.30;99.90;;;;;;5106716;28;20393;-66
2023/05/03 04:12:43;;;;;;;88.53;84.68;;;5.30;99.90;;;;;;5088598;28;20043;-65
2023/05/03 04:15:10;;;;;;;90.68;86.72;;;5.30;99.90;;;;;;5084606;28;20577;-66
2023/05/03 04:17:36;;;;;;;84.20;80.35;;;5.30;99.90;;;;;;5071616;28;20043;-66
2023/05/03 04:20:10;;;;;;;83.75;80.00;;;5.30;99.90;;;;;;5087615;28;20050;-65
2023/05/03 04:22:39;;;;;;;77.85;74.30;;;5.30;99.90;;;;;;5082506;28;20463;-66
2023/05/03 04:25:07;;;;;;;80.10;76.35;;;5.40;99.90;;;;;;5088116;28;20390;-65
2023/05/03 04:27:34;;;;;;;84.05;80.40;;;5.40;99.90;;;;;;5064279;28;20050;-65
2023/05/03 04:29:59;;;;;;;79.60;76.05;;;5.40;99.90;;;;;;5081227;28;20443;-65
2023/05/03 04:32:25;;;;;;;83.93;80.28;;;5.40;99.90;;;;;;5089978;28;20489;-65
2023/05/03 04:34:53;;;;;;;85.43;81.47;;;5.50;99.90;;;;;;5081375;28;20043;-65
2023/05/03 04:37:18;;;;;;;82.25;78.55;;;5.50;99.90;;;;;;5076494;28;20035;-66
2023/05/03 04:39:45;;;;;;;81.25;77.60;;;5.60;99.90;;;;;;5062826;28;20458;-66
2023/05/03 04:42:14;;;;;;;87.93;84.10;;;5.60;99.90;;;;;;5069843;28;20039;-66
2023/05/03 04:44:41;;;;;;;76.72;73.22;;;5.70;99.90;;;;;;5083028;28;20059;-66
2023/05/03 04:47:07;;;;;;;75.85;72.45;;;5.80;99.90;;;;;;5081928;28;20082;-66
2023/05/03 04:49:33;;;;;;;71.10;67.60;;;5.80;99.90;;;;;;5082941;28;20068;-66
2023/05/03 04:51:59;;;;;;;71.13;68.03;;;5.90;99.90;;;;;;5099558;28;20067;-66
2023/05/03 04:54:25;;;;;;;80.50;77.03;;;6.00;99.90;;;;;;5083917;28;20038;-66
2023/05/03 04:56:52;;;;;;;74.95;71.45;;;6.10;99.90;;;;;;5080298;28;20047;-66
2023/05/03 04:59:17;;;;;;;74.20;70.75;;;6.20;99.90;;;;;;5080580;28;20048;-65
2023/05/03 05:01:43;;;;;;;74.32;71.07;;;6.30;99.90;;;;;;5083029;28;20063;-66
2023/05/03 05:04:08;;;;;;;77.65;74.07;;;6.30;99.90;;;;;;5106730;28;20036;-66
2023/05/03 05:06:34;;;;;;;79.63;76.22;;;6.40;99.90;;;;;;5083346;28;20490;-66
2023/05/03 05:08:59;;;;;;;79.07;75.32;;;6.50;99.90;;;;;;5067067;28;20052;-66
2023/05/03 05:11:26;;;;;;;73.38;69.97;;;6.60;99.90;;;;;;5079170;28;20043;-66
2023/05/03 05:13:51;;;;;;;78.13;74.65;;;6.60;99.90;;;;;;5077837;28;20518;-66
2023/05/03 05:16:18;;;;;;;85.63;81.72;;;6.70;99.90;;;;;;5054276;28;20467;-66
2023/05/03 05:18:43;;;;;;;81.78;78.22;;;6.80;99.90;;;;;;5088481;28;20130;-66
2023/05/03 05:21:09;;;;;;;71.65;68.43;;;6.90;99.90;;;;;;5083720;28;20135;-66
2023/05/03 05:23:35;;;;;;;81.93;78.43;;;7.00;99.90;;;;;;5087830;28;20106;-67
2023/05/03 05:26:01;;;;;;;71.70;68.47;;;7.10;99.90;;;;;;5080575;28;20044;-66
2023/05/03 05:28:27;;;;;;;39.42;37.28;;;7.20;99.90;;;;;;5070096;28;20047;-66
2023/05/03 05:30:53;;;;;;;39.90;37.95;;;7.30;99.90;;;;;;5067237;28;20415;-66
2023/05/03 05:33:18;;;;;;;35.35;33.53;;;7.40;99.90;;;;;;5078930;28;20039;-66
2023/05/03 05:35:46;;;;;;;47.78;45.47;;;7.50;99.90;;;;;;5084123;28;20451;-66
2023/05/03 05:38:11;;;;;;;46.70;44.20;;;7.60;99.90;;;;;;5085125;28;20044;-66
2023/05/03 05:40:37;;;;;;;44.22;41.85;;;7.60;99.90;;;;;;5063154;28;20036;-66
2023/05/03 05:43:03;;;;;;;40.90;38.83;;;7.70;99.90;;;;;;5064531;28;20040;-66
2023/05/03 05:45:29;;;;;;;36.17;34.38;;;7.80;99.90;;;;;;5084062;28;20106;-66
2023/05/03 05:47:55;;;;;;;32.97;31.33;;;7.90;99.90;;;;;;5066244;28;20089;-66
2023/05/03 05:50:21;;;;;;;37.65;35.75;;;8.00;99.90;;;;;;5062209;28;20040;-66
2023/05/03 05:52:51;;;;;;;36.03;34.17;;;8.10;99.90;;;;;;5088400;28;20050;-66
2023/05/03 05:55:16;;;;;;;35.35;33.53;;;8.10;99.90;;;;;;5085300;28;20040;-66
2023/05/03 05:57:42;;;;;;;24.83;23.35;;;8.20;99.90;;;;;;5087953;28;20096;-66
2023/05/03 06:00:13;;;;;;;26.55;24.85;;;8.20;99.90;;;;;;5084192;28;20093;-66
2023/05/03 06:02:39;;;;;;;23.92;22.35;;;8.40;99.90;;;;;;5087844;28;20039;-66
2023/05/03 06:05:05;;;;;;;25.23;23.83;;;8.40;99.90;;;;;;5081066;28;20048;-67
2023/05/03 06:07:31;;;;;;;33.25;31.42;;;8.50;99.90;;;;;;5090009;28;20051;-66
2023/05/03 06:09:56;;;;;;;23.15;21.95;;;8.60;99.90;;;;;;5080126;28;20039;-66
2023/05/03 06:12:22;;;;;;;27.88;26.27;;;8.70;99.90;;;;;;5076526;28;20044;-67
2023/05/03 06:14:47;;;;;;;27.13;25.63;;;8.80;99.90;;;;;;5085666;28;20049;-66
2023/05/03 06:17:13;;;;;;;23.05;21.75;;;8.90;99.90;;;;;;5086797;28;20046;-66
2023/05/03 06:19:39;;;;;;;24.05;22.65;;;9.00;99.90;;;;;;5088279;28;20052;-67
2023/05/03 06:22:04;;;;;;;24.67;23.23;;;9.10;99.90;;;;;;5085862;28;20044;-66
2023/05/03 06:24:31;;;;;;;23.80;22.40;;;9.20;99.90;;;;;;5088104;28;20503;-66
2023/05/03 06:26:57;;;;;;;22.60;21.20;;;9.20;99.90;;;;;;5086200;28;20059;-67
2023/05/03 06:29:23;;;;;;;24.70;23.33;;;9.20;99.90;;;;;;5084780;28;20483;-66
2023/05/03 06:31:49;;;;;;;25.33;23.73;;;9.20;99.90;;;;;;5079818;28;20519;-67
2023/05/03 06:34:20;;;;;;;24.75;23.40;;;9.20;99.90;;;;;;5085202;28;20139;-66
2023/05/03 06:36:46;;;;;;;23.75;22.38;;;9.30;99.90;;;;;;5077472;28;20048;-66
2023/05/03 06:39:12;;;;;;;23.85;22.52;;;9.50;99.90;;;;;;5079847;28;20067;-67
2023/05/03 06:41:37;;;;;;;23.25;21.75;;;9.60;99.90;;;;;;5085410;28;20032;-67
2023/05/03 06:44:03;;;;;;;21.95;20.67;;;9.70;99.90;;;;;;5069510;28;20074;-67
2023/05/03 06:46:29;;;;;;;20.90;19.70;;;9.80;99.90;;;;;;5081381;28;20078;-67
2023/05/03 06:48:56;;;;;;;21.55;20.30;;;9.90;99.90;;;;;;5085768;28;20032;-67
2023/05/03 06:51:31;;;;;;;20.63;19.45;;;10.00;99.90;;;;;;5063113;28;20096;-67
2023/05/03 06:54:08;;;;;;;20.52;19.23;;;10.10;99.90;;;;;;5073261;28;20040;-67
2023/05/03 06:56:35;;;;;;;20.00;18.80;;;10.20;99.90;;;;;;5082540;28;20063;-67
2023/05/03 06:59:01;;;;;;;21.77;20.48;;;10.30;99.90;;;;;;5082607;28;20044;-67
2023/05/03 07:01:27;;;;;;;21.95;20.65;;;10.40;99.90;;;;;;5083226;28;20073;-67
2023/05/03 07:03:52;;;;;;;20.25;18.95;;;10.60;99.90;;;;;;5085960;28;20032;-67
2023/05/03 07:06:18;;;;;;;31.08;29.27;;;10.70;99.90;;;;;;5084064;28;20512;-67
2023/05/03 07:08:44;;;;;;;25.95;24.48;;;10.80;99.90;;;;;;5082080;28;20491;-67
2023/05/03 07:11:10;;;;;;;29.73;28.13;;;11.00;99.90;;;;;;5064632;28;20502;-67
2023/05/03 07:13:35;;;;;;;27.52;26.02;;;11.10;99.90;;;;;;5084195;28;20074;-66
2023/05/03 07:16:01;;;;;;;20.75;19.55;;;11.20;99.90;;;;;;5089477;28;20036;-67
2023/05/03 07:18:27;;;;;;;20.33;19.23;;;11.20;99.90;;;;;;5070820;28;20093;-67
2023/05/03 07:20:52;;;;;;;29.33;27.77;;;11.10;99.90;;;;;;5090875;28;20036;-67
2023/05/03 07:23:18;;;;;;;27.05;25.55;;;11.00;99.90;;;;;;5063479;28;20043;-67
2023/05/03 07:25:44;;;;;;;31.00;29.25;;;10.90;99.90;;;;;;5083945;28;20052;-67
2023/05/03 07:28:10;;;;;;;19.55;18.40;;;10.80;99.90;;;;;;5076534;28;20036;-67
2023/05/03 07:30:36;;;;;;;28.02;26.58;;;10.80;99.90;;;;;;5081754;28;20094;-66
2023/05/03 07:33:02;;;;;;;27.02;25.55;;;10.80;99.90;;;;;;5080593;28;20449;-66
2023/05/03 07:35:28;;;;;;;34.95;33.33;;;10.80;99.90;;;;;;5081119;28;20041;-66
2023/05/03 07:37:55;;;;;;;36.50;34.58;;;10.90;99.90;;;;;;5082937;28;20048;-67
2023/05/03 07:40:21;;;;;;;35.38;33.47;;;11.00;99.90;;;;;;5085274;28;20123;-67
2023/05/03 07:42:46;;;;;;;20.38;19.05;;;11.00;99.90;;;;;;5073519;28;20062;-67
2023/05/03 07:45:12;;;;;;;33.38;31.67;;;10.90;99.90;;;;;;5081433;28;20040;-66
2023/05/03 07:47:38;;;;;;;35.53;33.53;;;10.90;99.90;;;;;;5085339;28;20060;-66
2023/05/03 07:50:05;;;;;;;20.30;18.70;;;11.00;99.90;;;;;;5060660;28;20430;-67
2023/05/03 07:52:38;;;;;;;32.15;30.48;;;11.00;99.90;;;;;;5077541;28;20048;-66
2023/05/03 07:55:07;;;;;;;29.17;27.75;;;11.00;99.90;;;;;;5096923;28;20040;-67
2023/05/03 07:57:33;;;;;;;30.65;29.05;;;10.90;99.90;;;;;;5086990;28;20542;-66
2023/05/03 07:59:58;;;;;;;29.42;27.92;;;10.90;99.90;;;;;;5078468;28;20147;-67
2023/05/03 08:02:24;;;;;;;34.05;32.38;;;11.00;99.90;;;;;;5078458;28;20067;-66
2023/05/03 08:04:50;;;;;;;36.83;35.00;;;11.00;99.90;;;;;;5086687;28;20065;-67
2023/05/03 08:07:16;;;;;;;25.13;23.55;;;11.00;99.90;;;;;;5065610;28;20043;-66
2023/05/03 08:09:42;;;;;;;29.45;27.95;;;11.00;99.90;;;;;;5079874;28;20454;-66
2023/05/03 08:12:08;;;;;;;34.70;33.00;;;11.00;99.90;;;;;;5078599;28;20036;-67
2023/05/03 08:14:35;;;;;;;23.05;21.65;;;11.00;99.90;;;;;;5083640;28;20086;-67
2023/05/03 08:17:01;;;;;;;26.80;25.25;;;11.10;99.60;;;;;;5068759;28;20111;-66
2023/05/03 08:19:26;;;;;;;25.20;23.77;;;11.10;99.90;;;;;;5079468;28;20123;-67
2023/05/03 08:21:54;;;;;;;35.85;33.95;;;11.20;99.90;;;;;;5081164;28;20745;-67
2023/05/03 08:24:20;;;;;;;34.92;33.22;;;11.20;99.70;;;;;;5078973;28;20067;-68
2023/05/03 08:26:47;;;;;;;31.50;29.80;;;11.20;99.80;;;;;;5065437;28;20135;-67
2023/05/03 08:29:13;;;;;;;29.80;28.00;;;11.10;99.60;;;;;;5068435;28;20044;-66
2023/05/03 08:31:39;;;;;;;32.88;31.02;;;11.10;99.50;;;;;;5077331;28;20051;-67
2023/05/03 08:34:06;;;;;;;33.20;31.52;;;11.10;99.90;;;;;;5082638;28;20044;-66
2023/05/03 08:36:33;;;;;;;34.08;32.28;;;11.10;99.70;;;;;;5079893;28;20040;-66
2023/05/03 08:38:59;;;;;;;33.58;31.70;;;11.10;99.50;;;;;;5076486;28;20039;-67
2023/05/03 08:41:28;;;;;;;34.38;32.35;;;11.10;99.90;;;;;;5080237;28;20060;-67
2023/05/03 08:43:54;;;;;;;35.45;33.63;;;11.10;99.70;;;;;;5064404;28;20400;-66
2023/05/03 08:46:21;;;;;;;24.35;22.88;;;11.10;99.90;;;;;;5079077;28;20040;-66
2023/05/03 08:48:48;;;;;;;33.80;32.00;;;11.10;99.90;;;;;;5087810;28;20036;-66
2023/05/03 08:51:16;;;;;;;35.45;33.65;;;11.10;99.90;;;;;;5068400;28;20436;-66
2023/05/03 08:53:41;;;;;;;35.70;34.00;;;11.10;99.90;;;;;;5085537;28;20051;-66
2023/05/03 08:56:15;;;;;;;29.98;28.42;;;11.10;99.60;;;;;;5084652;28;20044;-66
2023/05/03 08:58:41;;;;;;;37.30;35.40;;;11.10;99.90;;;;;;5088985;28;20043;-67
2023/05/03 09:01:08;;;;;;;34.58;32.92;;;11.10;99.90;;;;;;5081813;28;20306;-66
2023/05/03 09:03:35;;;;;;;23.75;22.42;;;11.10;99.20;;;;;;5085933;28;20044;-67
2023/05/03 09:06:02;;;;;;;33.38;31.73;;;11.00;99.70;;;;;;5087247;28;20032;-67
2023/05/03 09:08:41;;;;;;;32.45;30.80;;;11.10;99.90;;;;;;5087385;28;20063;-67
2023/05/03 09:11:23;;;;;;;26.73;25.27;;;11.10;99.80;;;;;;5091248;28;20118;-66
2023/05/03 09:13:50;;;;;;;33.97;32.10;;;11.20;99.90;;;;;;5086776;28;20072;-67
2023/05/03 09:16:23;;;;;;;34.53;32.80;;;11.20;99.70;;;;;;5089555;28;20055;-66
2023/05/03 09:19:00;;;;;;;37.83;35.92;;;11.30;99.80;;;;;;5083453;28;20147;-66
2023/05/03 09:21:32;;;;;;;27.38;25.95;;;11.20;98.40;;;;;;5088615;28;20055;-67
2023/05/03 09:23:58;;;;;;;22.10;20.83;;;11.20;99.20;;;;;;5080146;28;20043;-67
2023/05/03 09:26:34;;;;;;;33.90;32.13;;;11.30;99.90;;;;;;5089152;28;20083;-67
2023/05/03 09:29:02;;;;;;;39.17;37.20;;;11.40;99.90;;;;;;5084353;28;20043;-67
2023/05/03 09:31:29;;;;;;;35.25;33.55;;;11.60;99.80;;;;;;5087014;28;20048;-67
2023/05/03 09:33:55;;;;;;;23.63;22.38;;;11.60;99.50;;;;;;5083030;28;20043;-67
2023/05/03 09:36:21;;;;;;;30.13;28.35;;;11.70;98.00;;;;;;5090550;28;20188;-66
2023/05/03 09:38:48;;;;;;;29.85;28.30;;;11.70;98.00;;;;;;5084912;28;20550;-67
2023/05/03 09:41:14;;;;;;;23.77;22.25;;;11.70;98.90;;;;;;5083672;28;20085;-66
2023/05/03 09:43:51;;;;;;;30.27;28.63;;;11.90;98.60;;;;;;5071528;28;20106;-67
2023/05/03 09:46:17;;;;;;;30.92;29.35;;;11.80;98.00;;;;;;5076244;28;20036;-66
2023/05/03 09:48:44;;;;;;;31.02;29.33;;;11.80;98.90;;;;;;5087508;28;20052;-66
2023/05/03 09:51:12;;;;;;;31.55;29.90;;;11.80;99.20;;;;;;5089561;28;20122;-67
2023/05/03 09:53:40;;;;;;;24.23;22.67;;;12.00;99.80;;;;;;5087380;28;20048;-67
2023/05/03 09:56:08;;;;;;;32.00;30.30;;;12.10;98.60;;;;;;5090182;28;20032;-66
2023/05/03 09:58:35;;;;;;;29.63;27.92;;;12.10;98.00;;;;;;5092496;28;20383;-67
2023/05/03 10:01:01;;;;;;;32.22;30.40;;;12.20;98.40;;;;;;5086181;28;20040;-67
2023/05/03 10:03:32;;;;;;;26.63;25.15;;;12.30;98.80;;;;;;5087233;28;20074;-67
2023/05/03 10:06:01;;;;;;;30.20;28.58;;;12.50;97.90;;;;;;5090524;28;20051;-67
2023/05/03 10:08:36;;;;;;;17.05;15.95;;;12.40;97.50;;;;;;5089935;28;20047;-67
2023/05/03 10:11:07;;;;;;;18.70;17.55;;;12.40;96.60;;;;;;5066445;28;20525;-67
2023/05/03 10:13:34;;;;;;;15.38;14.27;;;12.50;97.50;;;;;;5083690;28;20131;-67
2023/05/03 10:16:11;;;;;;;17.48;16.38;;;12.60;96.70;;;;;;5083535;28;20480;-67
2023/05/03 10:18:44;;;;;;;30.58;28.90;;;12.70;96.40;;;;;;5082927;28;20059;-67
2023/05/03 10:21:17;;;;;;;20.60;19.25;;;12.70;96.70;;;;;;5080048;28;20040;-67
2023/05/03 10:24:17;;;;;;;15.88;14.77;;;12.70;95.80;;;;;;5085146;28;20048;-67
2023/05/03 10:26:48;;;;;;;16.05;14.77;;;12.70;95.40;;;;;;5076424;28;20101;-67
2023/05/03 10:29:51;;;;;;;17.40;16.40;;;12.70;96.00;;;;;;5059281;28;20052;-67
2023/05/03 10:32:33;;;;;;;15.80;14.80;;;12.70;95.20;;;;;;5072795;28;20081;-67
2023/05/03 10:35:08;;;;;;;15.38;14.23;;;12.70;95.40;;;;;;5074295;28;20415;-67
2023/05/03 10:37:35;;;;;;;17.65;16.42;;;12.70;93.90;;;;;;5057756;28;20167;-67
2023/05/03 10:40:10;;;;;;;15.95;14.98;;;12.50;95.20;;;;;;5061762;28;20414;-66
2023/05/03 10:42:37;;;;;;;16.20;15.20;;;12.70;95.50;;;;;;5079912;28;20055;-67
2023/05/03 10:45:05;;;;;;;30.83;29.05;;;12.80;95.50;;;;;;5077990;28;20031;-67
2023/05/03 10:47:31;;;;;;;42.35;40.28;;;12.90;96.40;;;;;;5059994;28;20032;-67
2023/05/03 10:50:15;;;;;;;16.25;14.95;;;13.30;96.80;;;;;;5071164;28;20032;-66
2023/05/03 10:52:40;;;;;;;19.08;17.83;;;13.50;95.90;;;;;;5063142;28;20051;-67
2023/05/03 10:55:11;;;;;;;15.73;14.73;;;13.80;96.00;;;;;;5083828;28;20048;-67
2023/05/03 10:57:42;;;;;;;15.82;14.52;;;13.90;93.10;;;;;;5082668;28;20072;-67
2023/05/03 11:00:17;;;;;;;15.48;14.27;;;13.70;92.00;;;;;;5070060;28;20051;-67
2023/05/03 11:02:49;;;;;;;18.33;17.13;;;13.30;91.00;;;;;;5081012;28;20044;-67
2023/05/03 11:05:17;;;;;;;16.27;15.07;;;13.20;92.90;;;;;;5076964;28;20033;-67
2023/05/03 11:07:43;;;;;;;36.22;34.42;;;13.20;93.20;;;;;;5083836;28;20468;-67
2023/05/03 11:10:16;;;;;;;25.35;23.98;;;13.50;94.60;;;;;;5076826;28;20455;-67
2023/05/03 11:12:42;;;;;;;15.52;14.48;;;14.00;94.30;;;;;;5080010;28;20047;-67
2023/05/03 11:15:10;;;;;;;15.45;14.25;;;14.50;94.30;;;;;;5083955;28;20043;-67
2023/05/03 11:17:37;;;;;;;15.52;14.43;;;14.90;92.40;;;;;;5079206;28;20048;-67
2023/05/03 11:20:07;;;;;;;24.20;22.63;;;15.10;91.10;;;;;;5084090;28;20047;-67
2023/05/03 11:22:34;;;;;;;12.15;11.25;;;15.10;93.60;;;;;;5070199;28;20050;-67
2023/05/03 11:24:59;;;;;;;13.73;12.60;;;15.10;90.00;;;;;;5077797;28;20043;-69
2023/05/03 11:27:25;;;;;;;13.13;12.13;;;14.80;88.80;;;;;;5073087;28;20047;-66
2023/05/03 11:29:51;;;;;;;13.43;12.43;;;14.40;89.20;;;;;;5083370;28;20055;-67
2023/05/03 11:32:17;;;;;;;13.45;12.05;;;14.10;89.00;;;;;;5084376;28;20075;-67
2023/05/03 11:34:44;;;;;;;13.80;12.90;;;14.00;91.40;;;;;;5063939;28;20131;-66
2023/05/03 11:37:10;;;;;;;12.35;11.55;;;14.10;90.80;;;;;;5086113;28;20418;-67
2023/05/03 11:39:36;;;;;;;15.02;14.02;;;14.00;90.00;;;;;;5089142;28;20047;-67
2023/05/03 11:42:03;;;;;;;15.25;14.15;;;13.80;91.30;;;;;;5083772;28;20070;-67
2023/05/03 11:44:29;;;;;;;15.32;14.13;;;13.80;91.50;;;;;;5103894;28;20055;-67
2023/05/03 11:46:55;;;;;;;13.82;12.73;;;13.80;91.30;;;;;;5089908;28;20132;-66
2023/05/03 11:49:23;;;;;;;19.95;18.58;;;13.70;89.90;;;;;;5084187;28;20122;-67
2023/05/03 11:51:51;;;;;;;15.02;14.02;;;13.60;92.00;;;;;;5069028;27;20262;-67
2023/05/03 11:54:17;;;;;;;16.00;14.77;;;14.10;93.00;;;;;;5107925;28;20036;-67
2023/05/03 11:56:42;;;;;;;15.23;14.30;;;14.40;91.60;;;;;;5065089;28;20053;-67
2023/05/03 11:59:08;;;;;;;15.05;13.95;;;14.60;91.20;;;;;;5089868;28;20041;-67
2023/05/03 12:01:33;;;;;;;14.00;13.00;;;15.10;90.90;;;;;;5067994;28;20081;-66
2023/05/03 12:04:01;;;;;;;12.25;11.20;;;15.00;86.90;;;;;;5088847;28;20034;-66
2023/05/03 12:06:30;;;;;;;12.45;11.52;;;14.70;87.70;;;;;;5068843;28;20087;-66
2023/05/03 12:08:56;;;;;;;13.38;12.30;;;14.30;87.00;;;;;;5085812;28;20086;-67
2023/05/03 12:11:22;;;;;;;13.93;12.93;;;14.10;87.10;;;;;;5068062;28;20487;-67
2023/05/03 12:14:01;;;;;;;14.63;13.73;;;14.20;90.60;;;;;;5066344;28;20050;-67
2023/05/03 12:16:27;;;;;;;20.17;18.80;;;14.50;90.50;;;;;;5088004;28;20035;-66
2023/05/03 12:19:01;;;;;;;11.30;10.50;;;14.80;91.80;;;;;;5081537;28;20095;-67
2023/05/03 12:21:46;;;;;;;14.30;13.30;;;14.90;90.20;;;;;;5062066;28;20043;-67
2023/05/03 12:24:16;;;;;;;12.32;11.43;;;14.80;90.00;;;;;;5085035;28;20031;-67
2023/05/03 12:26:45;;;;;;;13.13;12.10;;;14.70;87.60;;;;;;5086860;28;20066;-66
2023/05/03 12:29:11;;;;;;;11.85;11.02;;;14.50;86.50;;;;;;5082485;28;20040;-67
2023/05/03 12:31:37;;;;;;;12.50;11.60;;;14.30;87.30;;;;;;5082315;28;20085;-67